KASH

Boire Field Airport

Nashua, New Hampshire, USA
METAR KASH 201656Z 28008KT 10SM OVC049 16/08 A2960 RMK AO2 SLP033 T01560083
Observed Flight Rules
Oct-20 @ 16:56 UTC (46 minutes ago) Visual Flight Rules
Wind Visibility Clouds
280° at 8 knots 10 miles
  • Overcast at 4,900' AGL
Temperatures Readings
Current 16°C / 61°F
Dewpoint 8°C / 46°F
Humidity 59%
Altimeter 29.6" Hg
Pressure 1003.3 hPa
Elevation 61
METAR KASH 201656Z 28008KT 10SM OVC049 16/08 A2960 RMK AO2 SLP033 T01560083
Observed Flight Rules
Oct-20 @ 16:56 UTC
(46 minutes ago)
VFR
Wind Visibility
280° at 8 knots 10 miles
Clouds
  • Overcast at 4,900' AGL
Temperature Dewpoint
16°C / 61°F 8°C / 46°F
Humidity Altimeter Pressure
59% 29.6" Hg 1003.3 hPa